Time;durP1;ratioP1;P1;durP2;ratioP2;P2;SDS_P1;SDS_P2;PMS_P1;PMS_P2;Temp;Humidity;BMP_temperature;BMP_pressure;BME280_temperature;BME280_humidity;BME280_pressure;Samples;Min_cycle;Max_cycle;Signal;HPM_P1;HPM_P2
2022/05/24 04:03:14;;;;;;;2.33;2.13;;;15.80;99.90;;;;;;6054495;22;20412;-66
2022/05/24 04:05:41;;;;;;;1.53;1.43;;;15.90;99.90;;;;;;5059826;28;20928;-66
2022/05/24 04:08:07;;;;;;;2.23;2.03;;;15.90;99.90;;;;;;5056558;28;20935;-67
2022/05/24 04:10:34;;;;;;;2.00;1.90;;;15.90;99.90;;;;;;5057076;28;20400;-67
2022/05/24 04:13:00;;;;;;;1.97;1.87;;;16.00;99.90;;;;;;5054448;28;20461;-67
2022/05/24 04:15:27;;;;;;;2.13;1.93;;;16.00;99.90;;;;;;5023050;28;20471;-66
2022/05/24 04:17:53;;;;;;;1.97;1.83;;;16.00;99.90;;;;;;5017043;28;20395;-66
2022/05/24 04:20:21;;;;;;;1.53;1.43;;;16.10;99.90;;;;;;5017223;28;20438;-66
2022/05/24 04:22:47;;;;;;;1.90;1.67;;;16.10;99.90;;;;;;5016773;28;20423;-66
2022/05/24 04:25:14;;;;;;;1.37;1.37;;;16.10;99.90;;;;;;5015949;28;20508;-66
2022/05/24 04:27:40;;;;;;;1.93;1.83;;;16.10;99.90;;;;;;5016967;28;20199;-66
2022/05/24 04:30:07;;;;;;;1.77;1.70;;;16.00;99.90;;;;;;5017030;28;20759;-67
2022/05/24 04:32:33;;;;;;;1.93;1.83;;;16.00;99.90;;;;;;5015969;28;20472;-66
2022/05/24 04:34:59;;;;;;;2.47;1.83;;;16.00;99.90;;;;;;5015975;28;20457;-67
2022/05/24 04:37:25;;;;;;;1.40;1.30;;;16.00;99.90;;;;;;5017189;28;20177;-67
2022/05/24 04:39:50;;;;;;;4.13;2.57;;;16.00;99.90;;;;;;5016726;28;20384;-67
2022/05/24 04:42:19;;;;;;;4.90;1.87;;;16.00;99.90;;;;;;5016217;28;20178;-66
2022/05/24 04:44:52;;;;;;;1.87;1.77;;;16.00;99.90;;;;;;5016535;28;20522;-66
2022/05/24 04:47:19;;;;;;;1.80;1.70;;;16.00;99.90;;;;;;5016884;28;20524;-66
2022/05/24 04:49:50;;;;;;;1.10;1.10;;;16.10;99.90;;;;;;5016324;28;20410;-64
2022/05/24 04:52:17;;;;;;;3.53;1.57;;;16.10;99.90;;;;;;5019229;28;20775;-64
2022/05/24 04:54:44;;;;;;;2.17;2.07;;;16.10;99.90;;;;;;5016341;28;20873;-65
2022/05/24 04:57:11;;;;;;;1.60;1.50;;;16.10;99.90;;;;;;5019076;28;20902;-64
2022/05/24 04:59:37;;;;;;;1.47;1.37;;;16.10;99.90;;;;;;5020015;28;20815;-65
2022/05/24 05:02:04;;;;;;;1.70;1.60;;;16.10;99.90;;;;;;5016245;28;20549;-65
2022/05/24 05:04:30;;;;;;;2.00;1.90;;;16.10;99.90;;;;;;5024109;28;20480;-66
2022/05/24 05:06:56;;;;;;;1.70;1.60;;;16.10;99.90;;;;;;5015866;28;20385;-66
2022/05/24 05:09:21;;;;;;;1.90;1.80;;;16.10;99.90;;;;;;5014989;28;20396;-66
2022/05/24 05:11:47;;;;;;;2.60;1.90;;;16.10;99.90;;;;;;5018853;28;20901;-72
2022/05/24 05:14:13;;;;;;;1.50;1.40;;;16.20;99.90;;;;;;5035181;28;20436;-65
2022/05/24 05:16:40;;;;;;;1.60;1.50;;;16.30;99.90;;;;;;5034735;28;20434;-67
2022/05/24 05:19:09;;;;;;;2.20;2.03;;;16.40;99.90;;;;;;5035646;28;20187;-66
2022/05/24 05:21:36;;;;;;;1.30;1.20;;;16.40;99.90;;;;;;5035784;28;20432;-66
2022/05/24 05:24:03;;;;;;;1.53;1.20;;;16.50;99.90;;;;;;5035203;28;20434;-67
2022/05/24 05:26:29;;;;;;;4.30;1.40;;;16.60;99.90;;;;;;5035667;28;20425;-67
2022/05/24 05:28:55;;;;;;;1.60;1.50;;;16.70;99.90;;;;;;5035512;28;20928;-66
2022/05/24 05:31:25;;;;;;;1.57;1.47;;;16.80;99.90;;;;;;5024596;28;20792;-66
2022/05/24 05:33:51;;;;;;;1.70;1.60;;;17.00;99.90;;;;;;5015025;28;20245;-67
2022/05/24 05:36:18;;;;;;;1.47;1.37;;;17.10;99.90;;;;;;5015761;28;20411;-67
2022/05/24 05:38:47;;;;;;;3.30;1.40;;;17.10;99.90;;;;;;5027007;28;20426;-67
2022/05/24 05:41:39;;;;;;;1.40;1.33;;;17.20;99.90;;;;;;5023728;28;20439;-67
2022/05/24 05:44:05;;;;;;;2.43;1.17;;;17.40;99.90;;;;;;5028233;28;20844;-69
2022/05/24 05:46:30;;;;;;;2.13;1.30;;;17.60;99.90;;;;;;5027795;28;20395;-69
2022/05/24 05:48:56;;;;;;;2.33;1.47;;;17.80;99.90;;;;;;5020362;28;21032;-67
2022/05/24 05:51:22;;;;;;;2.70;1.63;;;18.10;99.90;;;;;;5015062;28;20178;-69
2022/05/24 05:53:47;;;;;;;1.20;1.20;;;18.20;99.90;;;;;;5019903;28;20603;-69
2022/05/24 05:56:20;;;;;;;0.90;0.90;;;18.50;99.90;;;;;;5034052;28;20178;-68
2022/05/24 05:58:48;;;;;;;1.30;1.30;;;18.80;99.90;;;;;;5032761;28;20174;-66
2022/05/24 06:01:19;;;;;;;1.57;0.80;;;19.10;99.90;;;;;;5033340;28;20436;-70
2022/05/24 06:03:44;;;;;;;1.40;1.30;;;19.50;99.90;;;;;;5033592;28;20410;-67
2022/05/24 06:06:16;;;;;;;1.03;1.03;;;19.70;99.90;;;;;;5033525;28;20433;-65
2022/05/24 06:08:42;;;;;;;2.00;1.80;;;19.80;99.90;;;;;;5023903;28;20210;-68
2022/05/24 06:25:48;;;;;;;0.83;0.83;;;20.00;99.90;;;;;;5103197;27;20771;-68
2022/05/24 06:28:15;;;;;;;1.30;1.20;;;21.30;99.90;;;;;;5090158;28;20413;-68
2022/05/24 06:30:41;;;;;;;1.10;1.10;;;21.40;99.90;;;;;;5090516;28;20173;-67
2022/05/24 06:33:07;;;;;;;1.10;1.10;;;21.50;99.90;;;;;;5090381;28;20417;-68
2022/05/24 06:35:34;;;;;;;4.20;3.10;;;21.50;99.90;;;;;;5089918;28;20753;-68
2022/05/24 06:38:00;;;;;;;1.60;1.50;;;21.50;99.90;;;;;;5090018;28;20383;-68
2022/05/24 06:40:26;;;;;;;1.40;1.40;;;21.40;99.90;;;;;;5089943;28;20822;-68
2022/05/24 06:42:51;;;;;;;0.93;0.93;;;21.20;99.90;;;;;;5090209;28;20515;-68
2022/05/24 06:45:17;;;;;;;1.20;1.10;;;21.10;99.90;;;;;;5089068;28;20688;-68
2022/05/24 06:47:43;;;;;;;2.23;0.83;;;20.90;99.90;;;;;;5089618;28;20172;-69
2022/05/24 06:50:10;;;;;;;0.93;0.93;;;20.90;99.90;;;;;;5090127;28;20165;-69
2022/05/24 06:52:36;;;;;;;3.60;1.00;;;20.70;99.90;;;;;;5089672;28;20184;-68
2022/05/24 06:55:03;;;;;;;1.00;1.00;;;20.60;99.90;;;;;;5089386;28;20397;-68
2022/05/24 06:57:29;;;;;;;1.57;1.47;;;20.50;99.90;;;;;;5090044;28;20775;-68
2022/05/24 07:02:40;;;;;;;1.30;1.20;;;20.50;99.90;;;;;;5089967;28;20180;-67
2022/05/24 07:05:10;;;;;;;2.10;2.00;;;20.50;99.90;;;;;;5089116;28;20439;-69
2022/05/24 07:07:36;;;;;;;1.00;1.00;;;20.50;99.90;;;;;;5089505;28;20425;-65
2022/05/24 07:10:04;;;;;;;1.57;1.50;;;20.40;99.90;;;;;;5089703;28;20418;-70
2022/05/24 07:12:30;;;;;;;1.13;1.07;;;20.30;99.90;;;;;;5089573;28;20406;-68
2022/05/24 07:14:57;;;;;;;0.87;0.87;;;20.00;99.90;;;;;;5089092;28;20433;-69
2022/05/24 07:17:22;;;;;;;1.00;0.90;;;19.70;99.90;;;;;;5105029;28;20533;-68
2022/05/24 07:19:49;;;;;;;0.40;0.40;;;19.30;99.90;;;;;;5089472;28;20479;-70
2022/05/24 07:22:15;;;;;;;1.00;0.53;;;18.30;99.90;;;;;;5088840;28;20173;-68
2022/05/24 07:24:41;;;;;;;0.80;0.80;;;17.40;99.90;;;;;;5086464;28;20510;-66
2022/05/24 07:27:11;;;;;;;0.50;0.50;;;16.80;99.90;;;;;;5075873;28;20201;-68
2022/05/24 07:29:37;;;;;;;0.50;0.50;;;16.30;99.90;;;;;;5075706;28;20429;-67
2022/05/24 07:32:04;;;;;;;2.93;0.67;;;15.80;99.90;;;;;;5075771;28;20799;-68
2022/05/24 07:34:31;;;;;;;0.70;0.70;;;15.60;99.90;;;;;;5074947;28;20401;-67
2022/05/24 07:36:57;;;;;;;0.80;0.80;;;15.30;99.90;;;;;;5075548;28;20501;-67
2022/05/24 07:39:24;;;;;;;0.70;0.50;;;15.10;99.90;;;;;;5075810;28;20407;-67
2022/05/24 07:47:17;;;;;;;2.50;1.37;;;14.90;99.90;;;;;;5075049;28;20536;-66
2022/05/24 07:49:43;;;;;;;0.90;0.67;;;14.90;99.90;;;;;;5075354;28;20497;-67
2022/05/24 07:52:09;;;;;;;0.70;0.70;;;15.10;99.90;;;;;;5075656;28;20173;-66
2022/05/24 07:54:34;;;;;;;0.80;0.70;;;15.20;99.90;;;;;;5075437;28;20176;-65
2022/05/24 07:57:01;;;;;;;0.50;0.50;;;15.30;99.90;;;;;;5075283;28;20234;-69
2022/05/24 07:59:27;;;;;;;3.30;2.37;;;15.50;99.90;;;;;;5075354;28;20184;-64
2022/05/24 08:01:53;;;;;;;0.50;0.50;;;15.90;99.90;;;;;;5075188;28;20802;-65
2022/05/24 08:04:19;;;;;;;1.17;0.87;;;16.20;99.90;;;;;;5057017;28;20488;-65
2022/05/24 08:06:46;;;;;;;0.50;0.50;;;16.40;99.90;;;;;;5075185;28;20523;-65
2022/05/24 08:09:11;;;;;;;0.67;0.67;;;16.60;99.90;;;;;;5075484;28;20773;-65
2022/05/24 08:11:37;;;;;;;0.67;0.67;;;16.80;99.90;;;;;;5075411;28;20382;-65
2022/05/24 08:14:04;;;;;;;0.60;0.60;;;16.90;99.90;;;;;;5074988;28;20421;-65
2022/05/24 08:16:31;;;;;;;0.63;0.63;;;17.20;99.90;;;;;;5074215;28;20422;-66
2022/05/24 08:18:58;;;;;;;0.80;0.73;;;17.70;99.90;;;;;;5074815;28;20930;-66
2022/05/24 08:21:25;;;;;;;0.60;0.60;;;18.30;99.90;;;;;;5075049;28;20436;-66
2022/05/24 08:23:50;;;;;;;0.50;0.50;;;18.80;99.90;;;;;;5074714;28;20465;-65
2022/05/24 08:26:16;;;;;;;0.50;0.50;;;19.10;99.90;;;;;;5074564;28;20525;-65
2022/05/24 08:28:43;;;;;;;2.47;2.27;;;19.40;99.90;;;;;;5074754;28;20171;-65
2022/05/24 08:31:09;;;;;;;0.70;0.70;;;19.50;99.90;;;;;;5073964;28;20494;-65
2022/05/24 08:33:35;;;;;;;0.50;0.50;;;19.40;99.90;;;;;;5074839;28;20837;-66
2022/05/24 08:36:02;;;;;;;0.50;0.50;;;19.20;99.90;;;;;;5056071;28;20497;-66
2022/05/24 08:38:28;;;;;;;0.70;0.60;;;19.00;99.90;;;;;;5073686;28;20390;-65
2022/05/24 08:41:00;;;;;;;0.67;0.67;;;18.90;99.90;;;;;;5074424;28;20502;-66
2022/05/24 08:43:44;;;;;;;0.40;0.40;;;18.70;99.90;;;;;;5074349;28;20830;-66
2022/05/24 08:49:13;;;;;;;0.77;0.43;;;18.50;99.90;;;;;;5074729;28;20415;-65
2022/05/24 08:52:01;;;;;;;1.17;0.80;;;18.50;99.90;;;;;;5074054;28;20417;-65
2022/05/24 08:54:45;;;;;;;0.93;0.93;;;18.50;99.90;;;;;;5073947;28;20870;-65
2022/05/24 08:57:16;;;;;;;0.53;0.53;;;18.60;99.90;;;;;;5074136;28;20436;-66
2022/05/24 08:59:49;;;;;;;0.50;0.50;;;18.80;99.90;;;;;;5073558;28;20439;-65
2022/05/24 09:02:14;;;;;;;0.60;0.60;;;19.10;99.90;;;;;;5073721;28;20394;-65
2022/05/24 09:04:40;;;;;;;0.67;0.67;;;19.40;99.90;;;;;;5073541;28;20434;-65
2022/05/24 09:07:19;;;;;;;0.70;0.70;;;19.60;99.90;;;;;;5073351;28;20199;-66
2022/05/24 09:10:04;;;;;;;0.53;0.50;;;19.70;99.90;;;;;;5073862;28;20174;-65
2022/05/24 09:12:29;;;;;;;0.60;0.60;;;19.90;99.90;;;;;;5073410;28;20410;-65
2022/05/24 09:15:07;;;;;;;0.70;0.70;;;20.00;99.90;;;;;;5073399;28;20474;-66
2022/05/24 09:18:05;;;;;;;1.97;0.83;;;20.10;99.90;;;;;;5074169;28;20176;-66
2022/05/24 09:20:39;;;;;;;1.37;0.90;;;20.30;99.90;;;;;;5040111;28;20494;-66
2022/05/24 09:23:28;;;;;;;0.40;0.40;;;20.40;99.90;;;;;;5073151;28;20429;-66
2022/05/24 09:25:57;;;;;;;0.50;0.50;;;20.50;99.90;;;;;;5072891;28;20410;-66
2022/05/24 09:28:43;;;;;;;0.50;0.50;;;20.50;99.90;;;;;;5073293;28;20901;-64
2022/05/24 09:31:50;;;;;;;0.60;0.60;;;20.80;99.90;;;;;;5073443;28;20444;-67
2022/05/24 09:34:18;;;;;;;1.40;0.87;;;21.20;99.90;;;;;;5072972;28;20734;-66
2022/05/24 09:36:59;;;;;;;0.60;0.50;;;21.40;99.90;;;;;;5073040;28;20426;-65
2022/05/24 09:39:30;;;;;;;1.13;0.67;;;21.50;99.90;;;;;;5073581;28;20463;-65
2022/05/24 09:42:00;;;;;;;0.60;0.60;;;21.50;98.70;;;;;;5073404;28;20403;-65
2022/05/24 09:44:29;;;;;;;1.30;0.50;;;21.40;98.40;;;;;;5072488;28;20426;-65
2022/05/24 09:46:55;;;;;;;0.87;0.50;;;21.00;97.70;;;;;;5064552;28;20418;-65
2022/05/24 09:49:33;;;;;;;1.37;0.97;;;20.70;98.50;;;;;;5052130;28;20404;-65
2022/05/24 09:52:11;;;;;;;0.40;0.40;;;20.40;99.00;;;;;;5052439;28;20806;-65
2022/05/24 09:54:54;;;;;;;0.50;0.50;;;20.10;98.50;;;;;;5052569;28;20870;-65
2022/05/24 09:57:28;;;;;;;0.93;0.93;;;19.80;99.50;;;;;;5053242;28;20878;-65
2022/05/24 10:00:14;;;;;;;0.80;0.80;;;19.70;99.60;;;;;;5070625;28;20422;-65
2022/05/24 10:02:39;;;;;;;0.50;0.50;;;19.80;99.90;;;;;;5072743;28;20876;-66
2022/05/24 10:05:23;;;;;;;0.40;0.40;;;20.10;99.90;;;;;;5072890;28;20446;-65
2022/05/24 10:08:04;;;;;;;0.60;0.60;;;20.60;99.90;;;;;;5073221;28;20389;-66
2022/05/24 10:10:37;;;;;;;13.77;0.90;;;21.60;98.90;;;;;;5073094;28;20740;-66
2022/05/24 10:13:24;;;;;;;0.70;0.60;;;22.90;96.80;;;;;;5071936;28;20397;-67
2022/05/24 10:16:03;;;;;;;1.63;0.53;;;24.10;96.00;;;;;;5072339;28;20413;-66
2022/05/24 10:18:36;;;;;;;0.73;0.60;;;25.40;91.20;;;;;;5072728;28;20407;-66
2022/05/24 10:21:29;;;;;;;3.17;2.03;;;26.10;90.90;;;;;;5072550;28;20472;-66
2022/05/24 10:24:34;;;;;;;0.83;0.70;;;26.30;84.40;;;;;;5072387;28;20471;-67
2022/05/24 10:27:42;;;;;;;2.00;0.63;;;26.70;86.00;;;;;;5072762;28;20397;-67
2022/05/24 10:30:20;;;;;;;0.60;0.60;;;27.60;84.80;;;;;;5064767;28;20422;-66
2022/05/24 10:39:20;;;;;;;0.57;0.57;;;29.50;77.50;;;;;;5073244;28;20820;-67
2022/05/24 10:42:03;;;;;;;0.70;0.70;;;29.70;70.00;;;;;;5072643;28;20415;-66
2022/05/24 10:44:42;;;;;;;1.50;0.60;;;29.60;70.80;;;;;;5072580;28;20433;-67
2022/05/24 10:47:31;;;;;;;0.53;0.53;;;29.30;68.60;;;;;;5072520;28;20430;-67
2022/05/24 10:50:08;;;;;;;0.50;0.50;;;29.50;68.70;;;;;;5071685;28;20824;-64
2022/05/24 10:52:48;;;;;;;0.60;0.60;;;29.30;65.60;;;;;;5072743;28;20373;-66
2022/05/24 10:55:23;;;;;;;7.27;5.60;;;28.80;67.70;;;;;;5072521;28;20418;-66
2022/05/24 10:58:11;;;;;;;1.40;1.30;;;28.60;69.50;;;;;;5072731;28;20481;-66
2022/05/24 11:00:47;;;;;;;0.50;0.50;;;28.30;71.10;;;;;;5040570;28;21004;-66
2022/05/24 11:03:40;;;;;;;0.67;0.67;;;27.80;69.10;;;;;;5056340;28;20421;-66
2022/05/24 11:06:27;;;;;;;1.13;0.57;;;27.70;71.80;;;;;;5073096;28;20451;-66
2022/05/24 11:09:04;;;;;;;0.67;0.67;;;27.90;70.60;;;;;;5076198;28;20407;-66
2022/05/24 11:11:42;;;;;;;0.50;0.50;;;27.60;68.90;;;;;;5076154;28;20377;-66
2022/05/24 11:14:26;;;;;;;0.47;0.47;;;27.10;69.40;;;;;;5076077;28;20381;-66
2022/05/24 11:16:52;;;;;;;0.60;0.60;;;26.30;71.00;;;;;;5076651;28;20419;-65
2022/05/24 11:19:36;;;;;;;1.33;0.80;;;25.70;73.70;;;;;;5075752;28;20424;-65
2022/05/24 11:22:19;;;;;;;0.60;0.60;;;25.10;74.20;;;;;;5076260;28;20413;-67
2022/05/24 11:25:00;;;;;;;0.60;0.60;;;24.60;74.50;;;;;;5075561;28;20987;-69
2022/05/24 11:27:33;;;;;;;0.60;0.60;;;23.90;77.10;;;;;;5075917;28;20397;-67
2022/05/24 11:30:13;;;;;;;1.40;0.70;;;23.70;77.00;;;;;;5075427;28;20403;-65
2022/05/24 11:32:50;;;;;;;0.70;0.70;;;23.60;78.80;;;;;;5075300;28;20440;-66
2022/05/24 11:35:19;;;;;;;0.40;0.30;;;23.50;78.40;;;;;;5075350;28;20756;-66
2022/05/24 11:37:50;;;;;;;0.60;0.60;;;23.40;80.60;;;;;;5075937;28;20385;-66
2022/05/24 11:40:39;;;;;;;24.43;16.30;;;23.20;78.70;;;;;;5075976;28;20428;-65
2022/05/24 11:43:31;;;;;;;9.97;6.70;;;23.10;79.70;;;;;;5075824;28;20389;-66
2022/05/24 11:46:37;;;;;;;1.37;0.90;;;22.90;80.70;;;;;;5075093;28;20432;-65
2022/05/24 11:49:28;;;;;;;0.87;0.87;;;22.70;83.80;;;;;;5034310;28;20383;-65
2022/05/24 11:51:59;;;;;;;1.33;0.60;;;22.60;84.10;;;;;;5018409;28;20393;-64
2022/05/24 11:54:24;;;;;;;1.50;0.97;;;22.70;85.80;;;;;;5075126;28;20408;-64
2022/05/24 11:56:53;;;;;;;0.53;0.53;;;22.80;81.80;;;;;;5075369;28;20462;-66
2022/05/24 11:59:40;;;;;;;0.50;0.50;;;22.70;82.00;;;;;;5075593;28;20199;-67
2022/05/24 12:02:29;;;;;;;1.23;0.60;;;22.50;82.70;;;;;;5075526;28;20381;-68
2022/05/24 12:07:56;;;;;;;0.60;0.60;;;22.00;87.10;;;;;;5074170;28;20567;-68
2022/05/24 12:10:22;;;;;;;0.73;0.73;;;22.10;85.50;;;;;;5075505;28;20411;-68
2022/05/24 12:13:02;;;;;;;1.20;0.63;;;22.30;85.30;;;;;;5075325;28;20383;-68
2022/05/24 12:15:31;;;;;;;0.70;0.70;;;22.50;83.20;;;;;;5074413;28;20667;-68
2022/05/24 12:17:59;;;;;;;0.63;0.63;;;22.50;82.00;;;;;;5075066;28;20400;-67
2022/05/24 12:20:46;;;;;;;0.60;0.60;;;22.40;81.10;;;;;;5074661;28;20419;-68
2022/05/24 12:23:29;;;;;;;0.50;0.50;;;22.40;78.00;;;;;;5064464;28;20849;-69
2022/05/24 12:26:08;;;;;;;0.50;0.50;;;22.30;78.60;;;;;;5074568;28;20457;-66
2022/05/24 12:28:37;;;;;;;0.60;0.60;;;22.20;80.50;;;;;;5090607;28;20433;-67
2022/05/24 12:31:24;;;;;;;0.40;0.40;;;22.30;78.60;;;;;;5074786;28;20399;-69
2022/05/24 12:33:59;;;;;;;0.77;0.77;;;22.30;79.30;;;;;;5073501;28;20381;-65
2022/05/24 12:36:43;;;;;;;0.87;0.87;;;22.40;78.90;;;;;;5074360;28;21004;-67
2022/05/24 12:39:12;;;;;;;0.60;0.60;;;22.40;77.20;;;;;;5074831;28;20770;-70
2022/05/24 12:41:43;;;;;;;0.80;0.80;;;22.40;78.20;;;;;;5074654;28;20384;-69
2022/05/24 12:44:20;;;;;;;0.77;0.77;;;22.50;79.30;;;;;;5074240;28;20426;-67
2022/05/24 12:47:11;;;;;;;1.60;0.60;;;22.60;81.00;;;;;;5072352;28;20454;-69
2022/05/24 12:49:49;;;;;;;0.70;0.70;;;22.90;78.00;;;;;;5071952;28;20411;-67
2022/05/24 12:52:31;;;;;;;1.07;0.70;;;23.20;78.40;;;;;;5072255;28;20801;-69
2022/05/24 12:55:03;;;;;;;0.60;0.60;;;23.40;75.70;;;;;;5071993;28;20739;-68
2022/05/24 12:57:35;;;;;;;0.50;0.50;;;23.30;77.00;;;;;;5072043;28;20389;-67
2022/05/24 13:00:07;;;;;;;1.13;0.67;;;23.20;79.80;;;;;;5072782;28;20405;-69
2022/05/24 13:02:37;;;;;;;0.70;0.70;;;23.30;77.60;;;;;;5074031;28;20456;-66
2022/05/24 13:05:15;;;;;;;0.70;0.70;;;23.30;76.60;;;;;;5073787;28;20465;-68
2022/05/24 13:07:54;;;;;;;0.73;0.73;;;23.30;77.40;;;;;;5074246;28;20513;-67
2022/05/24 13:10:26;;;;;;;1.47;0.70;;;23.20;77.60;;;;;;5074009;28;20388;-68
2022/05/24 13:12:57;;;;;;;0.70;0.70;;;22.90;76.10;;;;;;5073649;28;20385;-67
2022/05/24 13:15:30;;;;;;;1.07;0.70;;;22.70;78.10;;;;;;5073443;28;20435;-68
2022/05/24 13:18:02;;;;;;;0.70;0.70;;;22.40;80.40;;;;;;5074079;28;20395;-68
2022/05/24 13:20:38;;;;;;;0.73;0.73;;;22.20;81.30;;;;;;5073934;28;20506;-68
2022/05/24 13:23:18;;;;;;;0.60;0.60;;;21.90;81.80;;;;;;5073508;28;20370;-68
2022/05/24 13:26:01;;;;;;;0.60;0.60;;;21.60;82.90;;;;;;5072876;28;20519;-66
2022/05/24 13:28:51;;;;;;;0.60;0.60;;;21.30;83.70;;;;;;5067002;28;20457;-68
2022/05/24 13:34:18;;;;;;;3.90;2.53;;;20.70;83.10;;;;;;5073606;28;20442;-68
2022/05/24 13:36:51;;;;;;;1.00;0.90;;;20.40;82.50;;;;;;5073425;28;20438;-67
2022/05/24 13:39:21;;;;;;;0.93;0.93;;;20.40;84.60;;;;;;5055828;28;20386;-70
2022/05/24 13:42:06;;;;;;;0.63;0.63;;;20.40;84.20;;;;;;5055396;28;20429;-69
2022/05/24 13:44:38;;;;;;;4.20;0.73;;;20.50;84.20;;;;;;5073382;28;20463;-67
2022/05/24 13:47:23;;;;;;;0.57;0.57;;;20.80;86.20;;;;;;5073237;28;20432;-69
2022/05/24 13:49:49;;;;;;;1.07;1.00;;;21.20;85.80;;;;;;5087353;28;20385;-69
2022/05/24 13:52:15;;;;;;;0.73;0.73;;;21.50;83.10;;;;;;5072958;28;20502;-68
2022/05/24 13:54:41;;;;;;;0.70;0.60;;;21.70;84.30;;;;;;5071856;28;20872;-68
2022/05/24 13:57:28;;;;;;;1.27;0.60;;;22.00;83.00;;;;;;5063100;28;20197;-69
2022/05/24 14:00:05;;;;;;;0.70;0.70;;;22.10;81.80;;;;;;5053343;28;20407;-68
2022/05/24 14:02:30;;;;;;;0.70;0.70;;;22.20;82.40;;;;;;5053379;28;20397;-67
2022/05/24 14:04:57;;;;;;;1.00;0.90;;;22.30;82.60;;;;;;5060420;28;20465;-69
2022/05/24 14:07:22;;;;;;;0.50;0.50;;;22.30;82.40;;;;;;5072405;28;20285;-68
2022/05/24 14:09:48;;;;;;;1.00;0.67;;;22.30;83.10;;;;;;5054908;28;20510;-69
2022/05/24 14:12:16;;;;;;;0.90;0.90;;;22.10;82.20;;;;;;5072052;28;20227;-64
2022/05/24 14:14:46;;;;;;;0.80;0.80;;;21.90;81.10;;;;;;5072328;28;20216;-68
2022/05/24 14:17:12;;;;;;;28.67;1.07;;;21.60;81.20;;;;;;5071187;28;20535;-68
2022/05/24 14:19:38;;;;;;;0.60;0.60;;;21.60;81.90;;;;;;5072785;28;20415;-66
2022/05/24 14:22:04;;;;;;;0.80;0.63;;;21.40;78.50;;;;;;5073157;28;20482;-68
2022/05/24 14:24:30;;;;;;;0.80;0.80;;;21.30;80.60;;;;;;5072518;28;20614;-67
2022/05/24 14:27:00;;;;;;;1.03;0.93;;;21.40;81.30;;;;;;5072648;28;20450;-67
2022/05/24 14:29:27;;;;;;;0.60;0.60;;;21.40;79.90;;;;;;5052889;28;20379;-67
2022/05/24 14:31:53;;;;;;;0.80;0.80;;;21.50;79.50;;;;;;5059857;28;20415;-68
2022/05/24 14:34:21;;;;;;;0.53;0.53;;;21.50;82.70;;;;;;5072228;28;20766;-68
2022/05/24 14:36:47;;;;;;;0.80;0.80;;;21.50;84.30;;;;;;5075260;28;20450;-68
2022/05/24 14:39:14;;;;;;;1.60;0.80;;;21.40;87.20;;;;;;5077065;28;20410;-69
2022/05/24 14:41:42;;;;;;;0.70;0.70;;;21.40;85.60;;;;;;5076851;28;20381;-68
2022/05/24 14:44:24;;;;;;;0.67;0.67;;;21.40;84.20;;;;;;5076569;28;20442;-68
2022/05/24 14:46:51;;;;;;;0.70;0.70;;;21.30;85.60;;;;;;5075752;28;20467;-69
2022/05/24 14:49:17;;;;;;;1.00;1.00;;;21.30;85.40;;;;;;5076756;28;20412;-68
2022/05/24 14:52:01;;;;;;;2.37;1.07;;;21.20;86.50;;;;;;5077000;28;20427;-67
2022/05/24 14:54:28;;;;;;;0.63;0.63;;;21.20;86.10;;;;;;5076419;28;20493;-69
2022/05/24 14:56:54;;;;;;;1.00;1.00;;;21.20;87.50;;;;;;5058225;28;20991;-66
2022/05/24 14:59:22;;;;;;;1.50;0.60;;;21.30;87.80;;;;;;5076581;28;20457;-67
2022/05/24 15:01:48;;;;;;;0.60;0.60;;;21.40;85.00;;;;;;5076516;28;20396;-69
2022/05/24 15:04:15;;;;;;;0.80;0.70;;;21.40;87.50;;;;;;5076355;28;20845;-66
2022/05/24 15:06:44;;;;;;;0.60;0.60;;;21.60;87.30;;;;;;5076024;28;20526;-69
2022/05/24 15:17:33;;;;;;;1.10;1.00;;;21.70;85.50;;;;;;5076422;28;20401;-67
2022/05/24 15:20:10;;;;;;;0.87;0.50;;;21.70;86.70;;;;;;5076530;28;20407;-69
2022/05/24 15:22:41;;;;;;;0.93;0.93;;;21.70;85.70;;;;;;5076373;28;20889;-67
2022/05/24 15:25:09;;;;;;;0.60;0.60;;;21.50;84.50;;;;;;5075405;28;20454;-69
2022/05/24 15:27:36;;;;;;;0.97;0.90;;;21.40;86.20;;;;;;5075530;28;20791;-65
2022/05/24 15:30:05;;;;;;;0.63;0.63;;;21.30;86.80;;;;;;5075436;28;20501;-70
2022/05/24 15:32:30;;;;;;;0.60;0.60;;;21.20;85.80;;;;;;5075933;28;20759;-65
2022/05/24 15:34:56;;;;;;;2.10;0.90;;;21.10;87.20;;;;;;5074667;28;20427;-68
2022/05/24 15:37:22;;;;;;;0.90;0.90;;;21.20;87.50;;;;;;5075733;28;20192;-66
2022/05/24 15:39:47;;;;;;;0.77;0.60;;;21.30;88.00;;;;;;5075767;28;20176;-67
2022/05/24 15:42:13;;;;;;;0.87;0.87;;;21.30;87.60;;;;;;5075857;28;20169;-68
2022/05/24 15:44:39;;;;;;;0.70;0.70;;;21.30;85.20;;;;;;5075270;28;20244;-68
2022/05/24 15:47:05;;;;;;;0.57;0.57;;;21.20;86.20;;;;;;5074793;28;20694;-66
2022/05/24 15:49:31;;;;;;;0.67;0.67;;;21.10;86.10;;;;;;5075460;28;20449;-69
2022/05/24 15:51:57;;;;;;;0.43;0.40;;;21.00;84.90;;;;;;5075607;28;20430;-69
2022/05/24 15:54:23;;;;;;;1.23;1.23;;;21.00;84.20;;;;;;5074604;28;20234;-69
2022/05/24 15:56:49;;;;;;;0.87;0.87;;;20.90;84.60;;;;;;5074881;28;20451;-69
2022/05/24 15:59:16;;;;;;;4.67;2.70;;;20.80;86.10;;;;;;5075276;28;20399;-66
2022/05/24 16:01:42;;;;;;;0.90;0.90;;;20.60;86.70;;;;;;5090408;28;20202;-68
2022/05/24 16:04:09;;;;;;;1.00;1.00;;;20.50;85.00;;;;;;5074817;28;20454;-67
2022/05/24 16:10:21;;;;;;;0.60;0.60;;;20.30;85.60;;;;;;5032809;28;20431;-67
2022/05/24 16:12:22;;;;;;;0.70;0.70;;;20.30;87.10;;;;;;5062445;28;20514;-66
2022/05/24 16:14:48;;;;;;;1.30;1.20;;;20.20;86.30;;;;;;5074126;28;20494;-66
2022/05/24 16:17:15;;;;;;;0.80;0.80;;;20.20;86.50;;;;;;5074827;28;20740;-69
2022/05/24 16:19:42;;;;;;;0.80;0.80;;;20.20;86.60;;;;;;5074531;28;20180;-68
2022/05/24 16:22:07;;;;;;;0.70;0.70;;;20.20;86.70;;;;;;5074800;28;20386;-66
2022/05/24 16:24:34;;;;;;;0.80;0.80;;;20.20;87.00;;;;;;5074287;28;20809;-66
2022/05/24 16:27:01;;;;;;;0.60;0.60;;;20.20;87.60;;;;;;5074316;28;20197;-65
2022/05/24 16:29:26;;;;;;;0.70;0.70;;;20.20;86.90;;;;;;5074293;28;20398;-67
2022/05/24 16:31:52;;;;;;;5.30;3.00;;;20.10;87.40;;;;;;5072471;28;20965;-67
2022/05/24 16:34:18;;;;;;;0.77;0.77;;;20.10;87.90;;;;;;5074076;28;20188;-67
2022/05/24 16:36:45;;;;;;;2.50;2.03;;;20.10;88.60;;;;;;5074529;28;20189;-67
2022/05/24 16:39:10;;;;;;;1.40;1.30;;;20.00;88.00;;;;;;5074029;28;20579;-65
2022/05/24 16:41:37;;;;;;;1.50;1.03;;;20.00;88.00;;;;;;5073903;28;20452;-65
2022/05/24 16:44:04;;;;;;;0.73;0.73;;;20.00;88.70;;;;;;5073738;28;20214;-64
2022/05/24 16:46:31;;;;;;;0.77;0.77;;;20.00;87.20;;;;;;5073272;28;20413;-66
2022/05/24 16:48:57;;;;;;;2.10;1.90;;;20.00;87.70;;;;;;5073871;28;20423;-68
2022/05/24 16:51:29;;;;;;;0.93;0.90;;;20.00;87.40;;;;;;5073848;28;20392;-70
2022/05/24 16:53:56;;;;;;;0.70;0.70;;;19.90;86.50;;;;;;5074020;28;20419;-69
2022/05/24 16:59:06;;;;;;;2.20;1.20;;;19.90;87.90;;;;;;5057800;28;20897;-69
2022/05/24 17:01:32;;;;;;;1.33;1.23;;;19.80;87.80;;;;;;5053831;28;20379;-69
2022/05/24 17:03:57;;;;;;;1.23;1.13;;;19.80;87.60;;;;;;5072897;28;20199;-67
2022/05/24 17:06:23;;;;;;;1.33;0.83;;;19.70;88.30;;;;;;5071369;28;20568;-66
2022/05/24 17:08:49;;;;;;;0.93;0.90;;;19.60;87.30;;;;;;5070951;28;20181;-70
2022/05/24 17:11:17;;;;;;;1.10;1.10;;;19.50;87.00;;;;;;5073702;28;20169;-66
2022/05/24 17:13:43;;;;;;;0.70;0.70;;;19.40;87.20;;;;;;5073521;28;20405;-66
2022/05/24 17:16:09;;;;;;;1.67;0.80;;;19.30;87.80;;;;;;5073187;28;20492;-68
2022/05/24 17:18:35;;;;;;;1.10;1.00;;;19.20;88.40;;;;;;5072858;28;20818;-65
2022/05/24 17:21:01;;;;;;;1.00;0.80;;;19.10;88.20;;;;;;5072698;28;20173;-69
2022/05/24 17:23:27;;;;;;;1.00;1.00;;;19.00;88.30;;;;;;5072794;28;20455;-66
2022/05/24 17:25:53;;;;;;;1.20;1.10;;;19.00;88.80;;;;;;5072903;28;20486;-64
2022/05/24 17:28:19;;;;;;;0.93;0.90;;;19.10;89.90;;;;;;5073268;28;20643;-66
2022/05/24 17:30:48;;;;;;;1.13;1.13;;;19.10;89.70;;;;;;5072612;28;20415;-64
2022/05/24 17:33:24;;;;;;;0.83;0.83;;;19.20;89.50;;;;;;5073002;28;20908;-69
2022/05/24 17:35:50;;;;;;;2.13;1.93;;;19.20;89.20;;;;;;5071971;28;20420;-68
2022/05/24 17:38:16;;;;;;;1.93;1.10;;;19.30;89.20;;;;;;5073623;28;20894;-65
2022/05/24 17:40:48;;;;;;;1.00;1.00;;;19.30;89.30;;;;;;5071963;28;20250;-66
2022/05/24 17:43:17;;;;;;;0.83;0.83;;;19.30;89.20;;;;;;5073555;28;20749;-66
2022/05/24 17:45:44;;;;;;;0.60;0.60;;;19.30;89.50;;;;;;5072444;28;20534;-67
2022/05/24 17:48:12;;;;;;;1.17;0.60;;;19.40;90.10;;;;;;5073645;28;20868;-66
2022/05/24 17:50:39;;;;;;;0.70;0.70;;;19.40;89.40;;;;;;5073043;28;20417;-65
2022/05/24 17:53:08;;;;;;;0.50;0.50;;;19.40;89.80;;;;;;5088448;28;20706;-63
2022/05/24 17:55:35;;;;;;;2.70;0.83;;;19.40;90.10;;;;;;5072433;28;20868;-63
2022/05/24 17:58:02;;;;;;;1.03;1.03;;;19.30;90.40;;;;;;5073286;28;20415;-62
2022/05/24 18:00:28;;;;;;;0.80;0.80;;;19.30;90.40;;;;;;5067301;28;20861;-64